Time;durP1;ratioP1;P1;durP2;ratioP2;P2;SDS_P1;SDS_P2;PMS_P1;PMS_P2;Temp;Humidity;BMP_temperature;BMP_pressure;BME280_temperature;BME280_humidity;BME280_pressure;Samples;Min_cycle;Max_cycle;Signal;HPM_P1;HPM_P2
2021/03/28 13:55:45;;;;;;;235.70;105.53;;;23.10;91.00;;;;;;5102012;27;744489;-78
2021/03/28 14:03:37;;;;;;;133.40;59.85;;;23.00;90.30;;;;;;5088764;27;20348;-77
2021/03/28 14:06:24;;;;;;;114.15;52.42;;;23.00;89.80;;;;;;5089459;28;20033;-77
2021/03/28 14:09:13;;;;;;;96.90;44.78;;;22.80;89.60;;;;;;5087642;28;20028;-77
2021/03/28 14:11:48;;;;;;;79.97;39.55;;;22.50;89.90;;;;;;5087847;28;20050;-78
2021/03/28 14:14:28;;;;;;;67.32;34.33;;;22.20;90.00;;;;;;5087038;28;20029;-77
2021/03/28 14:16:56;;;;;;;63.05;31.52;;;22.00;90.20;;;;;;5086671;28;20527;-78
2021/03/28 14:19:27;;;;;;;56.65;28.30;;;21.80;90.30;;;;;;5088534;28;20033;-77
2021/03/28 14:21:53;;;;;;;49.72;24.25;;;21.70;90.40;;;;;;5085702;28;20029;-79
2021/03/28 14:24:24;;;;;;;39.22;22.05;;;21.60;90.50;;;;;;5088639;28;20063;-83
2021/03/28 14:26:52;;;;;;;37.30;21.17;;;21.50;90.60;;;;;;5071467;28;20020;-81
2021/03/28 14:29:23;;;;;;;34.28;17.95;;;21.40;90.80;;;;;;5088618;28;20048;-86
2021/03/28 14:32:14;;;;;;;31.02;17.77;;;21.40;91.00;;;;;;5088297;28;20028;-80
2021/03/28 14:34:57;;;;;;;26.25;14.93;;;21.30;91.20;;;;;;5070069;28;20119;-85
2021/03/28 14:37:47;;;;;;;25.13;14.07;;;21.30;91.30;;;;;;5088200;28;20029;-79
2021/03/28 14:40:30;;;;;;;23.40;12.55;;;21.30;91.50;;;;;;5082649;28;20103;-80
2021/03/28 14:43:05;;;;;;;22.05;12.05;;;21.20;91.50;;;;;;5086570;28;20032;-80
2021/03/28 14:45:37;;;;;;;19.42;10.93;;;21.20;91.60;;;;;;5085081;28;20028;-80
2021/03/28 14:48:25;;;;;;;16.80;10.55;;;21.20;91.60;;;;;;5088932;28;20059;-80
2021/03/28 14:51:06;;;;;;;15.32;8.70;;;21.20;91.50;;;;;;5088274;28;20112;-79
2021/03/28 14:54:04;;;;;;;15.50;9.15;;;21.20;91.40;;;;;;5069564;28;20032;-79
2021/03/28 14:56:38;;;;;;;13.73;8.48;;;21.20;91.30;;;;;;5086344;28;20477;-79
2021/03/28 14:59:30;;;;;;;11.38;7.35;;;21.20;91.20;;;;;;5069615;28;20028;-80
2021/03/28 15:02:24;;;;;;;10.77;6.60;;;21.10;91.10;;;;;;5085593;28;20048;-80
2021/03/28 15:05:05;;;;;;;8.93;6.10;;;21.10;91.10;;;;;;5065169;28;20060;-79
2021/03/28 15:07:59;;;;;;;9.57;6.35;;;21.00;91.00;;;;;;5067266;28;20267;-79
2021/03/28 15:10:48;;;;;;;13.27;6.78;;;21.00;91.10;;;;;;5064044;28;20086;-80
2021/03/28 15:13:32;;;;;;;20.15;9.85;;;21.00;91.20;;;;;;5063044;28;20066;-79
2021/03/28 15:16:18;;;;;;;41.20;18.27;;;20.90;91.30;;;;;;5051310;28;20471;-79
2021/03/28 15:19:16;;;;;;;59.65;23.60;;;20.90;91.40;;;;;;5051682;28;20033;-78
2021/03/28 15:22:02;;;;;;;58.92;24.20;;;20.90;91.40;;;;;;5052552;28;20466;-79
2021/03/28 15:24:53;;;;;;;53.13;22.92;;;20.90;91.60;;;;;;5054133;28;20031;-85
2021/03/28 15:27:25;;;;;;;54.60;23.35;;;20.90;91.60;;;;;;5054150;28;20060;-80
2021/03/28 15:29:51;;;;;;;49.30;22.75;;;20.90;91.70;;;;;;5053516;28;20039;-78
2021/03/28 15:32:24;;;;;;;53.20;23.52;;;21.00;91.70;;;;;;5053892;28;20104;-77
2021/03/28 15:35:25;;;;;;;45.25;20.95;;;21.00;91.60;;;;;;5052536;28;20174;-78
2021/03/28 15:38:35;;;;;;;44.33;20.48;;;21.00;91.40;;;;;;5053151;28;20025;-77
2021/03/28 15:41:22;;;;;;;37.75;18.52;;;20.90;91.30;;;;;;5051213;28;20032;-78
2021/03/28 15:44:29;;;;;;;33.08;16.83;;;20.90;91.30;;;;;;5053993;28;20044;-78
2021/03/28 15:47:13;;;;;;;34.35;16.48;;;20.90;91.20;;;;;;5053148;28;20375;-77
2021/03/28 15:50:20;;;;;;;32.83;15.70;;;20.90;91.20;;;;;;5053230;28;20032;-77
2021/03/28 15:53:01;;;;;;;25.75;13.80;;;20.80;91.20;;;;;;5006349;28;20063;-80
2021/03/28 15:55:40;;;;;;;26.42;13.10;;;20.80;91.20;;;;;;5052859;28;20114;-77
2021/03/28 15:58:32;;;;;;;25.15;12.95;;;20.80;91.20;;;;;;5053123;28;20139;-78
2021/03/28 16:01:32;;;;;;;25.50;12.38;;;20.80;91.20;;;;;;5053361;28;20498;-79
2021/03/28 16:04:25;;;;;;;22.85;11.63;;;20.70;91.20;;;;;;5052771;28;20502;-82
2021/03/28 16:07:08;;;;;;;21.67;10.38;;;20.70;91.20;;;;;;5051832;28;20021;-79
2021/03/28 16:09:43;;;;;;;19.45;10.10;;;20.70;91.20;;;;;;5053125;28;20075;-79
2021/03/28 16:12:22;;;;;;;18.80;9.05;;;20.70;91.20;;;;;;5050658;28;20080;-79
2021/03/28 16:15:06;;;;;;;14.50;8.77;;;20.70;91.20;;;;;;5052638;28;20418;-79
2021/03/28 16:18:09;;;;;;;13.80;7.53;;;20.70;91.10;;;;;;5052883;28;20032;-79
2021/03/28 16:20:58;;;;;;;11.35;6.65;;;20.70;91.10;;;;;;5053108;28;20048;-79
2021/03/28 16:23:38;;;;;;;12.43;6.53;;;20.70;91.10;;;;;;5051074;28;20112;-79
2021/03/28 16:26:27;;;;;;;11.30;6.57;;;20.70;91.10;;;;;;5030726;28;20052;-80
2021/03/28 16:29:17;;;;;;;10.50;6.00;;;20.70;91.10;;;;;;5050896;28;20394;-79
2021/03/28 16:32:16;;;;;;;9.25;5.47;;;20.60;91.10;;;;;;5052521;28;20037;-80
2021/03/28 16:35:19;;;;;;;8.13;5.57;;;20.60;91.00;;;;;;5051610;28;20021;-78
2021/03/28 16:37:47;;;;;;;9.63;5.60;;;20.60;91.00;;;;;;5052251;28;20119;-79
2021/03/28 16:40:20;;;;;;;7.72;4.60;;;20.60;91.10;;;;;;5052846;28;20056;-80
2021/03/28 16:43:07;;;;;;;8.90;5.10;;;20.60;91.10;;;;;;5052221;28;20033;-77
2021/03/28 16:45:47;;;;;;;8.13;4.60;;;20.60;91.10;;;;;;5052125;28;20079;-78
2021/03/28 16:48:18;;;;;;;6.20;3.92;;;20.60;91.10;;;;;;5051134;28;20086;-78
2021/03/28 16:51:09;;;;;;;6.32;4.35;;;20.50;91.10;;;;;;5031562;28;20048;-78
2021/03/28 16:53:43;;;;;;;7.13;4.47;;;20.50;91.10;;;;;;5050741;28;20025;-78
2021/03/28 16:56:34;;;;;;;6.82;3.85;;;20.50;91.10;;;;;;5034356;28;20108;-78
2021/03/28 16:59:14;;;;;;;7.88;4.00;;;20.50;91.10;;;;;;5050470;28;20416;-77
2021/03/28 17:01:41;;;;;;;4.82;3.00;;;20.50;91.10;;;;;;5052022;28;20044;-79
2021/03/28 17:04:13;;;;;;;6.45;3.78;;;20.50;91.10;;;;;;5068344;28;20033;-78
2021/03/28 17:06:44;;;;;;;6.13;3.67;;;20.50;91.10;;;;;;5070411;28;20056;-79
2021/03/28 17:09:13;;;;;;;4.50;3.35;;;20.50;91.10;;;;;;5070455;28;20024;-78
2021/03/28 17:11:53;;;;;;;5.05;3.45;;;20.50;91.10;;;;;;5070830;28;20032;-77
2021/03/28 17:14:42;;;;;;;4.72;3.25;;;20.50;91.10;;;;;;5072232;28;20113;-78
2021/03/28 17:17:17;;;;;;;3.85;2.95;;;20.50;91.10;;;;;;5059635;28;20036;-79
2021/03/28 17:20:04;;;;;;;4.43;3.13;;;20.50;91.10;;;;;;5072479;28;20025;-78
2021/03/28 17:22:51;;;;;;;4.60;2.53;;;20.50;91.10;;;;;;5071864;28;20097;-78
2021/03/28 17:25:31;;;;;;;3.10;2.33;;;20.40;91.10;;;;;;5069677;28;20028;-79
2021/03/28 17:28:03;;;;;;;4.32;2.72;;;20.40;91.10;;;;;;5072762;28;20355;-79
2021/03/28 17:30:55;;;;;;;4.32;2.83;;;20.40;91.10;;;;;;5073657;28;20075;-77
2021/03/28 17:33:42;;;;;;;4.40;2.53;;;20.40;91.10;;;;;;5072904;28;20048;-78
2021/03/28 17:36:14;;;;;;;3.30;2.15;;;20.40;91.10;;;;;;5071221;28;20028;-76
2021/03/28 17:39:01;;;;;;;3.95;2.60;;;20.40;91.20;;;;;;5072299;28;20035;-75
2021/03/28 17:41:48;;;;;;;3.10;2.42;;;20.40;91.10;;;;;;5071294;28;20028;-77
2021/03/28 17:44:22;;;;;;;3.80;2.80;;;20.40;91.20;;;;;;5069256;28;20522;-77
2021/03/28 17:46:52;;;;;;;3.50;2.70;;;20.40;91.20;;;;;;5071156;28;20428;-75
2021/03/28 17:49:39;;;;;;;3.55;2.60;;;20.40;91.20;;;;;;5072154;28;20032;-77
2021/03/28 17:52:22;;;;;;;3.35;2.88;;;20.40;91.20;;;;;;5067785;28;20043;-75
2021/03/28 17:54:49;;;;;;;3.92;3.00;;;20.40;91.20;;;;;;5052509;28;20040;-77
2021/03/28 17:57:19;;;;;;;4.28;3.10;;;20.40;91.20;;;;;;5052935;28;20059;-77
2021/03/28 17:59:45;;;;;;;5.00;3.20;;;20.40;91.20;;;;;;5052423;28;20100;-75
2021/03/28 18:02:33;;;;;;;4.10;3.42;;;20.40;91.20;;;;;;5048372;28;20049;-76
2021/03/28 18:05:10;;;;;;;4.43;3.22;;;20.40;91.20;;;;;;5032689;28;20026;-75
2021/03/28 18:07:42;;;;;;;5.55;3.50;;;20.40;91.20;;;;;;5015285;28;20383;-76
2021/03/28 18:10:17;;;;;;;4.47;3.33;;;20.40;91.20;;;;;;5032705;28;20025;-76
2021/03/28 18:12:42;;;;;;;4.45;3.15;;;20.40;91.20;;;;;;5015258;28;20065;-76
2021/03/28 18:15:26;;;;;;;5.28;3.67;;;20.40;91.20;;;;;;5014976;28;20080;-76
2021/03/28 18:17:52;;;;;;;5.00;3.07;;;20.40;91.20;;;;;;5032664;28;20029;-78
2021/03/28 18:20:21;;;;;;;3.65;3.13;;;20.40;91.20;;;;;;5032923;28;20040;-77
2021/03/28 18:22:48;;;;;;;5.22;3.83;;;20.40;91.20;;;;;;5032442;28;20127;-76
2021/03/28 18:25:34;;;;;;;4.03;3.08;;;20.40;91.20;;;;;;5032503;28;20125;-77
2021/03/28 18:28:00;;;;;;;5.05;3.67;;;20.30;91.20;;;;;;5032409;28;20045;-76
2021/03/28 18:30:34;;;;;;;3.70;2.67;;;20.40;91.20;;;;;;4998945;28;20467;-77
2021/03/28 18:33:08;;;;;;;4.22;2.95;;;20.40;91.20;;;;;;5032571;28;20486;-76
2021/03/28 18:35:35;;;;;;;3.80;2.97;;;20.40;91.20;;;;;;5032487;28;20108;-76
2021/03/28 18:38:24;;;;;;;4.43;3.13;;;20.30;91.20;;;;;;5032375;28;20026;-75
2021/03/28 18:40:54;;;;;;;4.35;3.22;;;20.30;91.20;;;;;;5021548;28;20045;-75
2021/03/28 18:44:06;;;;;;;4.25;2.88;;;20.30;91.20;;;;;;5032706;28;20083;-76
2021/03/28 18:46:33;;;;;;;3.60;2.83;;;20.30;91.10;;;;;;5010953;28;20471;-77
2021/03/28 18:49:28;;;;;;;4.10;3.08;;;20.30;91.10;;;;;;5033919;28;20056;-75
2021/03/28 18:52:15;;;;;;;4.00;2.90;;;20.30;91.20;;;;;;5036213;28;20210;-77
2021/03/28 18:55:07;;;;;;;3.17;2.83;;;20.30;91.20;;;;;;5036355;28;20112;-76
2021/03/28 18:57:46;;;;;;;4.05;3.08;;;20.30;91.20;;;;;;5007862;28;20041;-76
2021/03/28 19:00:33;;;;;;;3.80;3.08;;;20.30;91.20;;;;;;5035994;28;20474;-76
2021/03/28 19:03:02;;;;;;;4.47;3.38;;;20.30;91.20;;;;;;5037571;28;20064;-76
2021/03/28 19:05:33;;;;;;;3.97;2.72;;;20.30;91.20;;;;;;5035924;28;20042;-75
2021/03/28 19:07:59;;;;;;;3.55;3.13;;;20.30;91.20;;;;;;5037270;28;20034;-76
2021/03/28 19:10:34;;;;;;;3.97;3.05;;;20.30;91.20;;;;;;5035940;28;20037;-76
2021/03/28 19:13:09;;;;;;;5.13;3.65;;;20.30;91.20;;;;;;5035246;28;20040;-75
2021/03/28 19:15:39;;;;;;;4.05;3.17;;;20.30;91.20;;;;;;5018030;28;20029;-77
2021/03/28 19:18:13;;;;;;;4.93;3.40;;;20.30;91.20;;;;;;5035792;28;20041;-78
2021/03/28 19:20:49;;;;;;;5.57;3.65;;;20.30;91.30;;;;;;5035846;28;20029;-75
2021/03/28 19:23:26;;;;;;;4.50;3.35;;;20.30;91.30;;;;;;5035461;28;20118;-76
2021/03/28 19:25:52;;;;;;;3.72;3.33;;;20.30;91.30;;;;;;5035486;28;20037;-77
2021/03/28 19:28:21;;;;;;;4.90;3.65;;;20.30;91.30;;;;;;5035440;28;20041;-76
2021/03/28 19:30:47;;;;;;;5.80;4.05;;;20.30;91.30;;;;;;5017189;28;20446;-77
2021/03/28 19:33:37;;;;;;;4.18;3.30;;;20.30;91.30;;;;;;5017546;28;20095;-76
2021/03/28 19:36:08;;;;;;;5.28;4.20;;;20.30;91.30;;;;;;5034775;28;20057;-77
2021/03/28 19:38:38;;;;;;;4.85;3.80;;;20.30;91.30;;;;;;5017857;28;20040;-77
2021/03/28 19:41:19;;;;;;;5.28;3.75;;;20.30;91.30;;;;;;5034925;28;20057;-77
2021/03/28 19:44:27;;;;;;;5.15;3.90;;;20.30;91.30;;;;;;5035423;28;20052;-76
2021/03/28 19:49:29;;;;;;;6.13;3.92;;;20.30;91.30;;;;;;5034761;28;20068;-77
2021/03/28 19:52:14;;;;;;;4.97;3.38;;;20.30;91.30;;;;;;5035184;28;20026;-76
2021/03/28 19:54:42;;;;;;;4.45;3.65;;;20.20;91.50;;;;;;5035054;28;20033;-77
2021/03/28 19:57:16;;;;;;;5.82;4.20;;;20.20;91.50;;;;;;5034549;28;20105;-76
2021/03/28 19:59:51;;;;;;;4.43;3.60;;;20.30;91.20;;;;;;5034922;28;20091;-76
2021/03/28 20:02:41;;;;;;;5.03;3.65;;;20.20;91.20;;;;;;5034362;28;20533;-77
2021/03/28 20:05:41;;;;;;;4.22;3.15;;;20.30;91.20;;;;;;5034337;28;20360;-76
2021/03/28 20:08:16;;;;;;;5.20;3.75;;;20.20;91.20;;;;;;5034123;28;20038;-76
2021/03/28 20:10:49;;;;;;;5.32;3.67;;;20.20;91.20;;;;;;5034731;28;20029;-77
2021/03/28 20:13:17;;;;;;;4.30;3.38;;;20.20;91.20;;;;;;5034181;28;20064;-77
2021/03/28 20:15:42;;;;;;;4.47;3.40;;;20.20;91.20;;;;;;5016554;28;20068;-77
2021/03/28 20:18:16;;;;;;;4.38;3.38;;;20.20;91.20;;;;;;5000064;28;20057;-76
2021/03/28 20:20:42;;;;;;;3.88;2.95;;;20.20;91.20;;;;;;5017001;28;20033;-78
2021/03/28 20:23:09;;;;;;;3.65;2.90;;;20.20;91.20;;;;;;5016234;28;20040;-76
2021/03/28 20:25:35;;;;;;;4.05;3.10;;;20.20;91.20;;;;;;5034670;28;20029;-76
2021/03/28 20:28:23;;;;;;;3.78;3.05;;;20.20;91.20;;;;;;5034001;28;20399;-76
2021/03/28 20:30:51;;;;;;;3.85;3.03;;;20.20;91.10;;;;;;5034643;28;20034;-76
2021/03/28 20:33:28;;;;;;;4.88;2.95;;;20.20;91.10;;;;;;5034100;28;20387;-77
2021/03/28 20:35:59;;;;;;;3.50;2.75;;;20.20;91.10;;;;;;5034110;28;20072;-75
2021/03/28 20:38:26;;;;;;;3.60;2.92;;;20.20;91.10;;;;;;5033675;28;20040;-77
2021/03/28 20:41:01;;;;;;;2.92;2.60;;;20.20;91.10;;;;;;5033962;28;20029;-77
2021/03/28 20:43:49;;;;;;;4.20;2.90;;;20.20;91.10;;;;;;5033158;28;20030;-76
2021/03/28 20:46:21;;;;;;;3.83;2.72;;;20.20;91.10;;;;;;5033175;28;20064;-77
2021/03/28 20:48:50;;;;;;;3.83;2.80;;;20.20;91.10;;;;;;5033696;28;20029;-76
2021/03/28 20:51:21;;;;;;;2.95;2.30;;;20.20;91.10;;;;;;5033720;28;20026;-77
2021/03/28 20:53:58;;;;;;;3.67;2.55;;;20.20;91.20;;;;;;5034234;28;20017;-78
2021/03/28 20:56:29;;;;;;;2.72;2.30;;;20.20;91.10;;;;;;5033467;28;20033;-77
2021/03/28 20:58:56;;;;;;;3.05;2.25;;;20.20;91.10;;;;;;5033596;28;20022;-77
2021/03/28 21:01:30;;;;;;;3.05;2.58;;;20.20;91.10;;;;;;5033446;28;20040;-78
2021/03/28 21:04:05;;;;;;;2.90;2.30;;;20.20;91.10;;;;;;5043421;28;20048;-77
2021/03/28 21:06:33;;;;;;;2.45;2.05;;;20.20;91.10;;;;;;5052876;28;20043;-77
2021/03/28 21:09:01;;;;;;;2.47;2.28;;;20.20;91.10;;;;;;5052381;28;20047;-77
2021/03/28 21:11:34;;;;;;;3.47;2.30;;;20.20;91.10;;;;;;5051386;28;20036;-76
2021/03/28 21:14:01;;;;;;;3.85;2.38;;;20.20;91.10;;;;;;5053377;28;20064;-77
2021/03/28 21:16:34;;;;;;;2.80;2.15;;;20.20;91.10;;;;;;5053002;28;20033;-77
2021/03/28 21:19:01;;;;;;;2.13;1.90;;;20.20;91.10;;;;;;5051799;28;20032;-78
2021/03/28 21:21:28;;;;;;;2.35;1.90;;;20.20;91.10;;;;;;5052604;28;20056;-77
2021/03/28 21:23:56;;;;;;;2.30;1.90;;;20.10;91.00;;;;;;5051842;28;20485;-78
2021/03/28 21:26:39;;;;;;;2.47;1.92;;;20.20;91.10;;;;;;5052890;28;20027;-78
2021/03/28 21:29:05;;;;;;;2.67;2.20;;;20.20;91.00;;;;;;5053060;28;20052;-78
2021/03/28 21:31:31;;;;;;;2.83;2.30;;;20.20;91.00;;;;;;5050765;28;20219;-81
2021/03/28 21:33:57;;;;;;;2.33;1.75;;;20.10;91.00;;;;;;5052684;28;20037;-77
2021/03/28 21:36:24;;;;;;;1.95;1.67;;;20.20;91.00;;;;;;5052789;28;20083;-77
2021/03/28 21:38:53;;;;;;;2.05;1.70;;;20.20;91.00;;;;;;5052893;28;20075;-76
2021/03/28 21:41:27;;;;;;;2.08;1.63;;;20.10;91.00;;;;;;5051181;28;20471;-79
2021/03/28 21:43:54;;;;;;;2.58;1.77;;;20.10;91.00;;;;;;5052980;28;20032;-77
2021/03/28 21:46:34;;;;;;;2.15;1.50;;;20.10;91.00;;;;;;5052161;28;20552;-77
2021/03/28 21:49:35;;;;;;;2.67;1.67;;;20.10;91.00;;;;;;5052828;28;20068;-78
2021/03/28 21:52:01;;;;;;;2.28;1.67;;;20.10;91.00;;;;;;5053118;28;20143;-77
2021/03/28 21:54:28;;;;;;;2.13;1.75;;;20.10;91.00;;;;;;5050929;28;20372;-77
2021/03/28 21:56:55;;;;;;;1.52;1.42;;;20.10;91.00;;;;;;5052570;28;20021;-77
